createdAt,value
2019-03-17T00:00:13.060Z,5.62
2019-03-17T00:02:42.239Z,5.28
2019-03-17T00:05:11.685Z,4.67
2019-03-17T00:07:40.871Z,7.72
2019-03-17T00:10:10.125Z,6.83
2019-03-17T00:12:39.421Z,5.70
2019-03-17T00:15:08.687Z,5.67
2019-03-17T00:17:37.875Z,5.65
2019-03-17T00:20:07.302Z,4.33
2019-03-17T00:22:37.251Z,6.28
2019-03-17T00:25:09.729Z,6.53
2019-03-17T00:27:37.364Z,5.78
2019-03-17T00:30:08.819Z,6.40
2019-03-17T00:32:37.963Z,3.92
2019-03-17T00:35:07.309Z,4.55
2019-03-17T00:37:36.466Z,6.50
2019-03-17T00:40:06.147Z,4.40
2019-03-17T00:42:35.317Z,3.85
2019-03-17T00:45:04.941Z,3.67
2019-03-17T00:47:34.085Z,4.30
2019-03-17T00:50:03.255Z,3.90
2019-03-17T00:52:32.517Z,4.80
2019-03-17T00:55:01.686Z,4.97
2019-03-17T00:57:30.867Z,6.45
2019-03-17T01:00:00.457Z,5.03
2019-03-17T01:02:29.671Z,4.20
2019-03-17T01:04:58.875Z,6.92
2019-03-17T01:07:28.253Z,5.78
2019-03-17T01:09:57.449Z,3.47
2019-03-17T01:12:26.628Z,5.80
2019-03-17T01:14:55.845Z,6.95
2019-03-17T01:17:25.035Z,5.87
2019-03-17T01:19:54.238Z,3.65
2019-03-17T01:22:23.529Z,5.10
2019-03-17T01:24:52.704Z,4.95
2019-03-17T01:27:21.913Z,4.80
2019-03-17T01:29:51.138Z,4.20
2019-03-17T01:32:20.333Z,4.20
2019-03-17T01:34:49.526Z,5.72
2019-03-17T01:37:18.734Z,5.92
2019-03-17T01:39:47.920Z,5.00
2019-03-17T01:42:18.538Z,5.53
2019-03-17T01:44:47.924Z,4.55
2019-03-17T01:47:17.102Z,7.58
2019-03-17T01:49:46.318Z,5.42
2019-03-17T01:52:15.570Z,5.78
2019-03-17T01:54:44.766Z,5.15
2019-03-17T01:57:14.117Z,5.87
2019-03-17T01:59:43.306Z,5.70
2019-03-17T02:02:12.486Z,4.80
2019-03-17T02:04:41.711Z,4.83
2019-03-17T02:07:10.866Z,4.08
2019-03-17T02:09:40.066Z,3.55
2019-03-17T02:12:09.276Z,3.72
2019-03-17T02:14:38.463Z,4.12
2019-03-17T02:17:07.673Z,3.50
2019-03-17T02:19:36.839Z,5.42
2019-03-17T02:22:06.075Z,5.58
2019-03-17T02:24:37.048Z,5.20
2019-03-17T02:27:06.277Z,4.65
2019-03-17T02:29:35.475Z,4.20
2019-03-17T02:32:04.633Z,4.75
2019-03-17T02:34:33.827Z,2.60
2019-03-17T02:37:03.017Z,4.33
2019-03-17T02:39:32.215Z,2.92
2019-03-17T02:42:01.422Z,4.08
2019-03-17T02:44:32.056Z,3.67
2019-03-17T02:47:01.224Z,4.75
2019-03-17T02:49:30.397Z,4.00
2019-03-17T02:51:59.582Z,4.78
2019-03-17T02:54:28.780Z,4.05
2019-03-17T02:56:58.072Z,2.87
2019-03-17T02:59:27.211Z,3.40
2019-03-17T03:01:56.678Z,3.98
2019-03-17T03:04:25.844Z,5.78
2019-03-17T03:06:55.320Z,4.55
2019-03-17T03:09:24.497Z,3.95
2019-03-17T03:11:53.738Z,4.72
2019-03-17T03:14:22.915Z,4.72
2019-03-17T03:16:52.117Z,4.15
2019-03-17T03:19:21.303Z,3.58
2019-03-17T03:21:50.490Z,4.55
2019-03-17T03:24:19.648Z,4.92
2019-03-17T03:26:48.848Z,3.75
2019-03-17T03:29:18.050Z,3.75
2019-03-17T03:31:47.264Z,4.90
2019-03-17T03:34:16.439Z,3.30
2019-03-17T03:36:45.662Z,3.05
2019-03-17T03:39:14.834Z,4.05
2019-03-17T03:41:44.016Z,5.05
2019-03-17T03:44:13.183Z,3.98
2019-03-17T03:46:42.355Z,5.70
2019-03-17T03:49:11.566Z,4.60
2019-03-17T03:51:40.760Z,5.12
2019-03-17T03:54:09.949Z,4.62
2019-03-17T03:56:39.173Z,3.72
2019-03-17T03:59:08.453Z,5.30
2019-03-17T04:01:37.643Z,4.22
2019-03-17T04:04:06.969Z,5.10
2019-03-17T04:06:36.174Z,5.03
2019-03-17T04:09:07.574Z,3.10
2019-03-17T04:11:36.708Z,4.70
2019-03-17T04:14:05.910Z,6.37
2019-03-17T04:16:35.073Z,7.50
2019-03-17T04:19:04.376Z,5.00
2019-03-17T04:21:33.565Z,5.10
2019-03-17T04:24:02.772Z,4.17
2019-03-17T04:26:32.049Z,5.45
2019-03-17T04:29:01.253Z,4.80
2019-03-17T04:31:30.436Z,6.37
2019-03-17T04:33:59.600Z,5.50
2019-03-17T04:36:39.556Z,6.62
2019-03-17T04:38:59.708Z,8.43
2019-03-17T04:41:28.892Z,7.15
2019-03-17T04:43:58.057Z,7.17
2019-03-17T04:46:27.242Z,6.05
2019-03-17T04:48:56.532Z,8.60
2019-03-17T04:51:25.685Z,7.67
2019-03-17T04:53:54.851Z,8.93
2019-03-17T04:56:24.052Z,10.43
2019-03-17T04:58:53.238Z,7.97
2019-03-17T05:01:22.435Z,6.83
2019-03-17T05:03:51.601Z,5.97
2019-03-17T05:06:20.783Z,7.92
2019-03-17T05:08:49.997Z,6.90
2019-03-17T05:11:19.182Z,8.00
2019-03-17T05:13:48.377Z,7.03
2019-03-17T05:16:17.549Z,8.63
2019-03-17T05:18:46.701Z,6.97
2019-03-17T05:21:15.876Z,9.18
2019-03-17T05:23:45.037Z,8.78
2019-03-17T05:26:14.261Z,6.10
2019-03-17T05:28:43.436Z,12.53
2019-03-17T05:31:12.771Z,7.53
2019-03-17T05:33:41.944Z,9.00
2019-03-17T05:36:11.105Z,6.78
2019-03-17T05:38:40.285Z,10.50
2019-03-17T05:41:09.503Z,9.25
2019-03-17T05:43:38.734Z,6.37
2019-03-17T05:46:07.902Z,9.93
2019-03-17T05:48:37.085Z,9.10
2019-03-17T05:51:06.290Z,7.60
2019-03-17T05:53:35.480Z,9.93
2019-03-17T05:56:04.666Z,10.18
2019-03-17T05:58:33.834Z,11.28
2019-03-17T06:01:03.020Z,7.80
2019-03-17T06:03:32.202Z,7.90
2019-03-17T06:06:01.388Z,7.12
2019-03-17T06:08:33.497Z,7.60
2019-03-17T06:11:01.520Z,12.80
2019-03-17T06:13:30.719Z,7.60
2019-03-17T06:16:03.026Z,6.97
2019-03-17T06:18:32.209Z,9.13
2019-03-17T06:21:01.415Z,9.18
2019-03-17T06:23:30.609Z,8.23
2019-03-17T06:25:59.797Z,7.72
2019-03-17T06:28:29.015Z,9.83
2019-03-17T06:30:58.228Z,10.55
2019-03-17T06:33:27.431Z,10.58
2019-03-17T06:35:56.623Z,9.60
2019-03-17T06:38:25.823Z,8.43
2019-03-17T06:40:55.177Z,8.75
2019-03-17T06:43:24.354Z,7.60
2019-03-17T06:45:53.539Z,10.00
2019-03-17T06:48:22.736Z,6.20
2019-03-17T06:50:51.922Z,7.95
2019-03-17T06:53:21.126Z,11.43
2019-03-17T06:55:50.370Z,10.45
2019-03-17T06:58:19.568Z,9.18
2019-03-17T07:00:48.730Z,10.75
2019-03-17T07:03:17.956Z,4.78
2019-03-17T07:05:47.123Z,8.85
2019-03-17T07:08:16.320Z,6.35
2019-03-17T07:10:45.522Z,6.72
2019-03-17T07:13:14.770Z,10.10
2019-03-17T07:15:43.946Z,9.00
2019-03-17T07:18:13.137Z,9.55
2019-03-17T07:20:42.310Z,8.15
2019-03-17T07:23:11.539Z,7.47
2019-03-17T07:25:40.718Z,6.75
2019-03-17T07:28:09.939Z,7.42
2019-03-17T07:30:39.073Z,6.35
2019-03-17T07:33:08.272Z,8.25
2019-03-17T07:35:37.847Z,6.75
2019-03-17T07:38:07.075Z,5.17
2019-03-17T07:40:36.301Z,4.60
2019-03-17T07:43:05.603Z,7.28
2019-03-17T07:45:34.787Z,6.55
2019-03-17T07:48:04.097Z,7.03
2019-03-17T07:50:33.301Z,6.67
2019-03-17T07:53:02.501Z,5.83
2019-03-17T07:55:31.727Z,6.60
2019-03-17T07:58:00.893Z,6.15
2019-03-17T08:00:32.118Z,8.05
2019-03-17T08:03:01.008Z,10.08
2019-03-17T08:05:30.293Z,6.67
2019-03-17T08:08:08.755Z,7.05
2019-03-17T08:10:30.374Z,5.65
2019-03-17T08:12:59.550Z,5.12
2019-03-17T08:15:28.742Z,5.78
2019-03-17T08:17:57.927Z,5.53
2019-03-17T08:20:27.314Z,5.12
2019-03-17T08:22:56.512Z,3.80
2019-03-17T08:25:25.737Z,2.30
2019-03-17T08:27:54.914Z,7.37
2019-03-17T08:30:24.191Z,4.60
2019-03-17T08:32:53.446Z,3.12
2019-03-17T08:35:22.707Z,4.62
2019-03-17T08:37:51.873Z,3.80
2019-03-17T08:40:21.103Z,3.42
2019-03-17T08:42:50.432Z,3.15
2019-03-17T08:45:19.648Z,3.08
2019-03-17T08:47:57.831Z,3.47
2019-03-17T08:50:19.873Z,6.03
2019-03-17T08:52:49.072Z,2.60
2019-03-17T08:55:18.321Z,3.95
2019-03-17T08:57:47.495Z,3.95
2019-03-17T09:00:16.712Z,3.47
2019-03-17T09:02:46.008Z,3.90
2019-03-17T09:05:15.205Z,4.25
2019-03-17T09:07:44.399Z,3.75
2019-03-17T09:10:13.769Z,3.17
2019-03-17T09:12:42.948Z,5.65
2019-03-17T09:15:12.417Z,3.00
2019-03-17T09:17:41.627Z,2.27
2019-03-17T09:20:11.386Z,1.20
2019-03-17T09:22:40.618Z,1.05
2019-03-17T09:25:10.374Z,1.47
2019-03-17T09:27:39.886Z,0.68
2019-03-17T09:30:11.073Z,2.05
2019-03-17T09:32:40.415Z,0.65
2019-03-17T09:35:09.931Z,0.98
2019-03-17T09:37:39.284Z,0.60
2019-03-17T09:40:09.387Z,1.02
2019-03-17T09:42:38.624Z,0.50
2019-03-17T09:45:08.428Z,0.53
2019-03-17T09:47:37.616Z,0.78
2019-03-17T09:50:08.185Z,0.35
2019-03-17T09:52:40.590Z,0.72
2019-03-17T09:55:10.229Z,1.05
2019-03-17T09:57:39.447Z,1.37
2019-03-17T10:00:10.292Z,0.55
2019-03-17T10:02:39.672Z,0.50
2019-03-17T10:05:09.811Z,0.40
2019-03-17T10:07:39.109Z,1.77
2019-03-17T10:10:09.833Z,1.67
2019-03-17T10:12:39.147Z,0.60
2019-03-17T10:15:11.112Z,1.62
2019-03-17T10:17:40.351Z,0.70
2019-03-17T10:20:12.181Z,1.27
2019-03-17T10:22:41.458Z,0.80
2019-03-17T10:25:11.063Z,0.60
2019-03-17T10:27:40.488Z,1.12
2019-03-17T10:30:11.566Z,1.47
2019-03-17T10:32:40.813Z,1.37
2019-03-17T10:35:10.245Z,0.72
2019-03-17T10:37:39.455Z,0.88
2019-03-17T10:40:11.649Z,0.78
2019-03-17T10:42:40.856Z,1.98
2019-03-17T10:45:10.667Z,1.77
2019-03-17T10:47:39.880Z,1.72
2019-03-17T10:50:11.338Z,1.52
2019-03-17T10:52:40.536Z,1.60
2019-03-17T10:55:10.874Z,3.08
2019-03-17T10:57:40.101Z,2.30
2019-03-17T11:00:12.147Z,2.40
2019-03-17T11:02:41.361Z,1.20
2019-03-17T11:05:11.355Z,1.10
2019-03-17T11:07:40.583Z,1.25
2019-03-17T11:10:12.651Z,2.55
2019-03-17T11:12:41.865Z,2.55
2019-03-17T11:15:12.968Z,1.15
2019-03-17T11:17:42.194Z,2.47
2019-03-17T11:20:11.557Z,2.65
2019-03-17T11:22:40.773Z,1.00
2019-03-17T11:25:10.179Z,1.87
2019-03-17T11:27:39.435Z,1.70
2019-03-17T11:30:12.155Z,1.70
2019-03-17T11:32:41.388Z,1.52
2019-03-17T11:35:10.815Z,2.25
2019-03-17T11:37:40.090Z,2.40
2019-03-17T11:40:10.854Z,0.90
2019-03-17T11:42:40.321Z,3.12
2019-03-17T11:45:11.747Z,1.77
2019-03-17T11:47:40.968Z,2.27
2019-03-17T11:50:13.345Z,8.13
2019-03-17T11:52:42.636Z,2.40
2019-03-17T11:55:11.948Z,1.40
2019-03-17T11:57:41.838Z,1.75
2019-03-17T12:00:13.148Z,1.45
2019-03-17T12:02:42.390Z,2.42
2019-03-17T12:05:12.062Z,4.00
2019-03-17T12:07:41.304Z,3.33
2019-03-17T12:10:12.309Z,2.62
2019-03-17T12:12:41.475Z,2.15
2019-03-17T12:15:12.980Z,2.10
2019-03-17T12:17:42.290Z,2.40
2019-03-17T12:20:11.916Z,2.47
2019-03-17T12:22:41.179Z,1.00
2019-03-17T12:25:11.810Z,1.02
2019-03-17T12:27:41.024Z,1.32
2019-03-17T12:30:15.228Z,1.02
2019-03-17T12:32:44.452Z,0.65
2019-03-17T12:35:13.677Z,1.40
2019-03-17T12:37:42.944Z,1.92
2019-03-17T12:40:12.223Z,1.27
2019-03-17T12:42:41.581Z,1.70
2019-03-17T12:45:10.911Z,1.05
2019-03-17T12:47:40.156Z,1.42
2019-03-17T12:50:10.148Z,1.07
2019-03-17T12:52:39.518Z,1.98
2019-03-17T12:55:08.842Z,0.60
2019-03-17T12:57:38.070Z,1.65
2019-03-17T13:00:09.603Z,2.22
2019-03-17T13:02:38.841Z,0.85
2019-03-17T13:05:08.525Z,1.55
2019-03-17T13:07:37.991Z,1.77
2019-03-17T13:10:15.649Z,2.15
2019-03-17T13:12:40.858Z,0.82
2019-03-17T13:15:10.502Z,1.25
2019-03-17T13:17:39.926Z,3.00
2019-03-17T13:20:10.434Z,1.70
2019-03-17T13:22:43.370Z,2.40
2019-03-17T13:25:16.158Z,1.55
2019-03-17T13:27:45.499Z,1.57
2019-03-17T13:30:14.801Z,1.30
2019-03-17T13:32:44.180Z,1.20
2019-03-17T13:35:13.830Z,1.55
2019-03-17T13:37:43.450Z,1.85
2019-03-17T13:40:13.440Z,1.85
2019-03-17T13:42:42.881Z,2.47
2019-03-17T13:45:13.091Z,2.30
2019-03-17T13:47:42.472Z,1.67
2019-03-17T13:50:13.891Z,1.72
2019-03-17T13:52:43.127Z,3.47
2019-03-17T13:55:12.841Z,3.00
2019-03-17T13:57:43.340Z,2.30
2019-03-17T14:00:14.444Z,1.02
2019-03-17T14:02:44.142Z,2.25
2019-03-17T14:05:14.497Z,3.37
2019-03-17T14:07:43.610Z,3.62
2019-03-17T14:10:15.394Z,1.52
2019-03-17T14:12:44.529Z,3.25
2019-03-17T14:15:14.529Z,2.08
2019-03-17T14:17:43.947Z,1.95
2019-03-17T14:20:15.926Z,2.12
2019-03-17T14:22:45.283Z,2.62
2019-03-17T14:25:16.955Z,1.92
2019-03-17T14:27:46.586Z,1.95
2019-03-17T14:30:16.631Z,1.27
2019-03-17T14:32:45.844Z,2.12
2019-03-17T14:35:15.403Z,2.60
2019-03-17T14:37:44.906Z,1.65
2019-03-17T14:40:14.415Z,1.27
2019-03-17T14:42:43.649Z,1.57
2019-03-17T14:45:14.202Z,1.40
2019-03-17T14:47:43.549Z,1.45
2019-03-17T14:50:15.161Z,1.45
2019-03-17T14:52:44.550Z,1.07
2019-03-17T14:55:14.085Z,0.37
2019-03-17T14:57:43.571Z,1.17
2019-03-17T15:00:17.208Z,0.60
2019-03-17T15:02:46.834Z,1.35
2019-03-17T15:05:16.917Z,1.12
2019-03-17T15:07:46.135Z,0.60
2019-03-17T15:10:17.102Z,0.85
2019-03-17T15:12:46.539Z,1.82
2019-03-17T15:15:16.734Z,1.12
2019-03-17T15:17:49.422Z,1.47
2019-03-17T15:20:19.502Z,0.78
2019-03-17T15:22:49.357Z,1.15
2019-03-17T15:25:18.930Z,0.72
2019-03-17T15:27:48.942Z,0.98
2019-03-17T15:30:22.806Z,0.75
2019-03-17T15:32:52.254Z,0.72
2019-03-17T15:35:21.620Z,0.72
2019-03-17T15:37:51.028Z,1.52
2019-03-17T15:40:20.357Z,0.80
2019-03-17T15:42:49.607Z,1.05
2019-03-17T15:45:19.057Z,1.70
2019-03-17T15:47:48.516Z,0.65
2019-03-17T15:50:18.156Z,2.70
2019-03-17T15:52:47.720Z,0.98
2019-03-17T15:55:16.963Z,2.05
2019-03-17T15:57:46.215Z,1.80
2019-03-17T16:00:25.658Z,2.80
2019-03-17T16:02:50.769Z,1.22
2019-03-17T16:05:20.353Z,0.93
2019-03-17T16:07:49.939Z,1.30
2019-03-17T16:10:20.334Z,1.82
2019-03-17T16:12:50.055Z,1.90
2019-03-17T16:15:19.575Z,1.42
2019-03-17T16:17:48.956Z,1.80
2019-03-17T16:20:20.074Z,2.15
2019-03-17T16:22:49.653Z,1.20
2019-03-17T16:25:19.082Z,1.15
2019-03-17T16:27:48.303Z,1.27
2019-03-17T16:30:19.759Z,1.10
2019-03-17T16:32:49.350Z,1.20
2019-03-17T16:35:18.912Z,2.90
2019-03-17T16:37:48.797Z,2.17
2019-03-17T16:40:19.625Z,2.98
2019-03-17T16:42:48.777Z,4.47
2019-03-17T16:45:18.055Z,2.42
2019-03-17T16:47:47.336Z,3.65
2019-03-17T16:50:16.921Z,2.25
2019-03-17T16:52:46.389Z,2.25
2019-03-17T16:55:16.328Z,2.72
2019-03-17T16:57:45.757Z,2.05
2019-03-17T17:00:19.126Z,2.60
2019-03-17T17:02:48.123Z,1.52
2019-03-17T17:05:17.538Z,2.98
2019-03-17T17:07:47.225Z,2.22
2019-03-17T17:10:17.594Z,2.05
2019-03-17T17:12:46.776Z,1.62
2019-03-17T17:15:17.999Z,3.30
2019-03-17T17:17:47.158Z,3.70
2019-03-17T17:20:18.561Z,5.08
2019-03-17T17:22:47.797Z,2.67
2019-03-17T17:25:16.969Z,3.35
2019-03-17T17:27:46.137Z,2.98
2019-03-17T17:30:16.212Z,2.10
2019-03-17T17:32:45.767Z,2.55
2019-03-17T17:35:15.362Z,2.52
2019-03-17T17:37:44.571Z,4.17
2019-03-17T17:40:15.357Z,2.90
2019-03-17T17:42:44.859Z,4.10
2019-03-17T17:45:15.383Z,4.15
2019-03-17T17:47:44.586Z,2.50
2019-03-17T17:50:15.527Z,2.05
2019-03-17T17:52:44.882Z,1.37
2019-03-17T17:55:14.676Z,1.75
2019-03-17T17:57:44.146Z,1.70
2019-03-17T18:00:17.576Z,1.72
2019-03-17T18:02:46.992Z,2.50
2019-03-17T18:05:16.489Z,1.82
2019-03-17T18:07:46.384Z,2.22
2019-03-17T18:10:19.058Z,2.65
2019-03-17T18:12:48.892Z,1.50
2019-03-17T18:15:21.108Z,3.08
2019-03-17T18:17:51.023Z,3.37
2019-03-17T18:20:20.764Z,3.20
2019-03-17T18:22:50.043Z,3.12
2019-03-17T18:25:19.290Z,1.52
2019-03-17T18:27:48.468Z,1.35
2019-03-17T18:30:18.277Z,2.15
2019-03-17T18:32:47.493Z,2.25
2019-03-17T18:35:17.173Z,2.87
2019-03-17T18:37:46.519Z,3.62
2019-03-17T18:40:18.937Z,2.52
2019-03-17T18:42:48.294Z,2.33
2019-03-17T18:45:18.763Z,3.37
2019-03-17T18:47:48.411Z,2.95
2019-03-17T18:50:21.026Z,4.40
2019-03-17T18:52:50.913Z,3.20
2019-03-17T18:55:20.959Z,12.23
2019-03-17T18:57:50.529Z,6.87
2019-03-17T19:00:20.751Z,2.62
2019-03-17T19:02:50.371Z,1.77
2019-03-17T19:05:20.583Z,3.35
2019-03-17T19:07:50.028Z,5.97
2019-03-17T19:10:19.568Z,3.00
2019-03-17T19:12:49.406Z,3.85
2019-03-17T19:15:18.861Z,3.67
2019-03-17T19:17:48.099Z,2.25
2019-03-17T19:20:17.452Z,4.90
2019-03-17T19:22:47.173Z,1.80
2019-03-17T19:25:16.723Z,3.33
2019-03-17T19:27:49.738Z,3.98
2019-03-17T19:30:19.846Z,2.80
2019-03-17T19:32:49.421Z,3.40
2019-03-17T19:35:19.166Z,3.75
2019-03-17T19:37:49.197Z,4.00
2019-03-17T19:40:19.177Z,3.85
2019-03-17T19:42:58.041Z,4.17
2019-03-17T19:45:20.086Z,2.58
2019-03-17T19:47:49.703Z,2.35
2019-03-17T19:50:19.707Z,6.00
2019-03-17T19:52:49.249Z,2.25
2019-03-17T19:55:18.797Z,2.77
2019-03-17T19:57:48.679Z,3.22
2019-03-17T20:00:19.360Z,3.77
2019-03-17T20:02:49.009Z,5.03
2019-03-17T20:05:18.337Z,2.75
2019-03-17T20:07:47.990Z,2.95
2019-03-17T20:10:20.081Z,2.67
2019-03-17T20:12:49.348Z,3.50
2019-03-17T20:15:18.758Z,2.87
2019-03-17T20:17:48.042Z,5.33
2019-03-17T20:20:17.467Z,2.62
2019-03-17T20:22:46.686Z,2.95
2019-03-17T20:25:16.006Z,3.58
2019-03-17T20:27:48.772Z,3.40
2019-03-17T20:30:18.360Z,4.47
2019-03-17T20:32:47.825Z,4.05
2019-03-17T20:35:17.120Z,4.15
2019-03-17T20:38:07.350Z,5.20
2019-03-17T20:40:36.682Z,3.72
2019-03-17T20:43:18.661Z,5.67
2019-03-17T20:45:37.061Z,2.55
2019-03-17T20:48:06.550Z,3.80
2019-03-17T20:50:35.999Z,3.58
2019-03-17T20:53:06.073Z,3.77
2019-03-17T20:55:35.818Z,4.12
2019-03-17T20:58:05.513Z,5.65
2019-03-17T21:00:35.149Z,3.50
2019-03-17T21:03:04.759Z,4.60
2019-03-17T21:05:34.031Z,6.30
2019-03-17T21:08:03.605Z,5.87
2019-03-17T21:10:33.589Z,4.67
2019-03-17T21:13:03.003Z,6.40
2019-03-17T21:15:32.591Z,6.03
2019-03-17T21:18:01.878Z,4.72
2019-03-17T21:20:31.232Z,4.05
2019-03-17T21:23:00.422Z,4.15
2019-03-17T21:25:29.689Z,4.35
2019-03-17T21:27:59.059Z,2.72
2019-03-17T21:30:28.483Z,4.15
2019-03-17T21:32:58.303Z,5.15
2019-03-17T21:35:27.849Z,3.83
2019-03-17T21:37:57.359Z,5.30
2019-03-17T21:40:26.563Z,4.85
2019-03-17T21:42:55.707Z,6.95
2019-03-17T21:45:27.369Z,5.58
2019-03-17T21:47:55.827Z,6.25
2019-03-17T21:50:25.069Z,8.93
2019-03-17T21:52:54.259Z,4.75
2019-03-17T21:55:23.450Z,6.00
2019-03-17T21:57:52.707Z,4.85
2019-03-17T22:00:22.216Z,4.90
2019-03-17T22:02:54.627Z,4.12
2019-03-17T22:05:22.399Z,7.03
2019-03-17T22:07:51.696Z,4.60
2019-03-17T22:10:20.944Z,7.03
2019-03-17T22:12:50.340Z,6.22
2019-03-17T22:15:19.596Z,4.65
2019-03-17T22:17:48.759Z,6.50
2019-03-17T22:20:17.946Z,6.58
2019-03-17T22:22:47.107Z,8.55
2019-03-17T22:25:16.297Z,6.72
2019-03-17T22:27:45.441Z,6.22
2019-03-17T22:30:17.174Z,6.03
2019-03-17T22:32:46.301Z,5.33
2019-03-17T22:35:15.450Z,11.90
2019-03-17T22:37:44.696Z,5.60
2019-03-17T22:40:17.056Z,7.65
2019-03-17T22:42:46.374Z,11.25
2019-03-17T22:45:15.953Z,9.35
2019-03-17T22:47:45.136Z,6.72
2019-03-17T22:50:14.814Z,7.05
2019-03-17T22:52:43.964Z,6.97
2019-03-17T22:55:13.160Z,7.62
2019-03-17T22:57:42.303Z,7.97
2019-03-17T23:00:16.108Z,8.28
2019-03-17T23:02:45.253Z,7.30
2019-03-17T23:05:14.480Z,5.65
2019-03-17T23:07:43.650Z,7.78
2019-03-17T23:10:12.846Z,7.65
2019-03-17T23:12:42.018Z,11.73
2019-03-17T23:15:11.299Z,9.43
2019-03-17T23:17:40.727Z,8.60
2019-03-17T23:20:10.167Z,10.28
2019-03-17T23:22:39.325Z,8.85
2019-03-17T23:25:08.804Z,6.87
2019-03-17T23:27:37.947Z,7.40
2019-03-17T23:30:08.181Z,8.40
2019-03-17T23:32:37.332Z,9.00
2019-03-17T23:35:06.618Z,7.75
2019-03-17T23:37:37.639Z,8.58
2019-03-17T23:40:09.550Z,10.10
2019-03-17T23:42:38.168Z,7.15
2019-03-17T23:45:07.800Z,8.38
2019-03-17T23:47:37.016Z,10.20
2019-03-17T23:50:06.534Z,8.78
2019-03-17T23:52:35.782Z,8.58
2019-03-17T23:55:05.070Z,8.70
2019-03-17T23:57:34.198Z,10.32
